<?xml version="1.0" encoding="UTF-8" standalone="no" ?>
<gpx xmlns="http://www.topografix.com/GPX/1/1" xmlns:xsi="http://www.w3.org/2001/XMLSchema-instance" xsi:schemaLocation="http://www.topografix.com/GPX/1/1 http://www.topografix.com/GPX/1/1/gpx.xsd" version="1.1" creator="VisuGPX - https://www.visugpx.com">
  <metadata>
    <name>Rocher de Roquebrune - Grotte de l\'ermite - ROQUEBRUNE SUR ARGENS - 83</name>
    <desc><![CDATA[Départ d\'un parking en bordure de l\'Argens au nord du Rocher du Palay. Prendre direction sud en suivant globalement la côte 30 à l\'est du Rocher du Palay pour rejoindre le GR 51 vers La Maurette. Il n\'y a pas de sentier le passage se fait \"au feeling\". Remontée du ravin des Pétignons jusqu\'à la côte 194 à la Haute Rouquaire. Prendre direction sud, puis ouest pour rejoindre la côte 205. Aller voir le menhir situé 200m au sud. Rejoindre la côte 194 et prendre direction nord, passer au pied du rocher des trois têtes. Vous arrivrez ensuite au pied de la grotte de l\'ermite. Descente raide pour rejoindre la route qui nous remène au point de départ.]]></desc>
  </metadata>
  <trk>
    <name><![CDATA[09-DEC-12 15:14:30]]></name>
    <trkseg>
      <trkpt lat="43.45071" lon="6.61632">
        <ele>11.67</ele>
        <time>2012-12-09T08:55:24Z</time>
      </trkpt>
      <trkpt lat="43.45076" lon="6.61655">
        <ele>7.83</ele>
        <time>2012-12-09T08:58:34Z</time>
      </trkpt>
      <trkpt lat="43.45064" lon="6.6168">
        <ele>8.79</ele>
        <time>2012-12-09T08:58:58Z</time>
      </trkpt>
      <trkpt lat="43.45049" lon="6.61694">
        <ele>9.27</ele>
        <time>2012-12-09T08:59:22Z</time>
      </trkpt>
      <trkpt lat="43.45033" lon="6.61709">
        <ele>11.67</ele>
        <time>2012-12-09T08:59:47Z</time>
      </trkpt>
      <trkpt lat="43.45018" lon="6.61721">
        <ele>11.67</ele>
        <time>2012-12-09T09:00:07Z</time>
      </trkpt>
      <trkpt lat="43.45002" lon="6.61729">
        <ele>13.12</ele>
        <time>2012-12-09T09:00:31Z</time>
      </trkpt>
      <trkpt lat="43.44983" lon="6.61725">
        <ele>14.08</ele>
        <time>2012-12-09T09:00:55Z</time>
      </trkpt>
      <trkpt lat="43.44963" lon="6.6172">
        <ele>14.56</ele>
        <time>2012-12-09T09:01:15Z</time>
      </trkpt>
      <trkpt lat="43.44949" lon="6.61719">
        <ele>13.6</ele>
        <time>2012-12-09T09:01:52Z</time>
      </trkpt>
      <trkpt lat="43.4493" lon="6.61712">
        <ele>12.63</ele>
        <time>2012-12-09T09:02:32Z</time>
      </trkpt>
      <trkpt lat="43.44911" lon="6.61712">
        <ele>13.12</ele>
        <time>2012-12-09T09:02:55Z</time>
      </trkpt>
      <trkpt lat="43.44895" lon="6.61713">
        <ele>15.04</ele>
        <time>2012-12-09T09:03:36Z</time>
      </trkpt>
      <trkpt lat="43.4488" lon="6.61707">
        <ele>16.96</ele>
        <time>2012-12-09T09:04:47Z</time>
      </trkpt>
      <trkpt lat="43.44864" lon="6.61721">
        <ele>20.81</ele>
        <time>2012-12-09T09:05:05Z</time>
      </trkpt>
      <trkpt lat="43.44853" lon="6.61737">
        <ele>24.65</ele>
        <time>2012-12-09T09:05:26Z</time>
      </trkpt>
      <trkpt lat="43.44836" lon="6.61737">
        <ele>27.05</ele>
        <time>2012-12-09T09:05:47Z</time>
      </trkpt>
      <trkpt lat="43.44822" lon="6.61721">
        <ele>29.94</ele>
        <time>2012-12-09T09:06:08Z</time>
      </trkpt>
      <trkpt lat="43.44808" lon="6.61708">
        <ele>34.26</ele>
        <time>2012-12-09T09:06:32Z</time>
      </trkpt>
      <trkpt lat="43.4479" lon="6.61713">
        <ele>36.67</ele>
        <time>2012-12-09T09:06:56Z</time>
      </trkpt>
      <trkpt lat="43.44779" lon="6.61719">
        <ele>37.15</ele>
        <time>2012-12-09T09:07:33Z</time>
      </trkpt>
      <trkpt lat="43.44766" lon="6.61732">
        <ele>32.34</ele>
        <time>2012-12-09T09:08:12Z</time>
      </trkpt>
      <trkpt lat="43.44758" lon="6.6172">
        <ele>28.02</ele>
        <time>2012-12-09T09:08:45Z</time>
      </trkpt>
      <trkpt lat="43.4474" lon="6.61733">
        <ele>22.73</ele>
        <time>2012-12-09T09:09:21Z</time>
      </trkpt>
      <trkpt lat="43.44724" lon="6.61745">
        <ele>18.88</ele>
        <time>2012-12-09T09:09:54Z</time>
      </trkpt>
      <trkpt lat="43.44713" lon="6.61746">
        <ele>12.15</ele>
        <time>2012-12-09T09:10:27Z</time>
      </trkpt>
      <trkpt lat="43.447" lon="6.61763">
        <ele>8.31</ele>
        <time>2012-12-09T09:11:05Z</time>
      </trkpt>
      <trkpt lat="43.44689" lon="6.61776">
        <ele>10.23</ele>
        <time>2012-12-09T09:13:03Z</time>
      </trkpt>
      <trkpt lat="43.44676" lon="6.61777">
        <ele>15.04</ele>
        <time>2012-12-09T09:13:49Z</time>
      </trkpt>
      <trkpt lat="43.44664" lon="6.61791">
        <ele>20.32</ele>
        <time>2012-12-09T09:14:21Z</time>
      </trkpt>
      <trkpt lat="43.44649" lon="6.61809">
        <ele>23.69</ele>
        <time>2012-12-09T09:14:47Z</time>
      </trkpt>
      <trkpt lat="43.44645" lon="6.6182">
        <ele>24.65</ele>
        <time>2012-12-09T09:15:49Z</time>
      </trkpt>
      <trkpt lat="43.4463" lon="6.61827">
        <ele>29.46</ele>
        <time>2012-12-09T09:16:31Z</time>
      </trkpt>
      <trkpt lat="43.44617" lon="6.61839">
        <ele>28.5</ele>
        <time>2012-12-09T09:17:09Z</time>
      </trkpt>
      <trkpt lat="43.44604" lon="6.61847">
        <ele>27.05</ele>
        <time>2012-12-09T09:19:14Z</time>
      </trkpt>
      <trkpt lat="43.44593" lon="6.61862">
        <ele>16.96</ele>
        <time>2012-12-09T09:20:57Z</time>
      </trkpt>
      <trkpt lat="43.44573" lon="6.6186">
        <ele>13.12</ele>
        <time>2012-12-09T09:21:39Z</time>
      </trkpt>
      <trkpt lat="43.44556" lon="6.61838">
        <ele>13.6</ele>
        <time>2012-12-09T09:22:03Z</time>
      </trkpt>
      <trkpt lat="43.44541" lon="6.61823">
        <ele>13.6</ele>
        <time>2012-12-09T09:22:55Z</time>
      </trkpt>
      <trkpt lat="43.44525" lon="6.61808">
        <ele>13.6</ele>
        <time>2012-12-09T09:23:16Z</time>
      </trkpt>
      <trkpt lat="43.44509" lon="6.61793">
        <ele>14.08</ele>
        <time>2012-12-09T09:23:47Z</time>
      </trkpt>
      <trkpt lat="43.44494" lon="6.61779">
        <ele>14.08</ele>
        <time>2012-12-09T09:24:14Z</time>
      </trkpt>
      <trkpt lat="43.44476" lon="6.61765">
        <ele>16.48</ele>
        <time>2012-12-09T09:24:40Z</time>
      </trkpt>
      <trkpt lat="43.44466" lon="6.6175">
        <ele>18.88</ele>
        <time>2012-12-09T09:25:42Z</time>
      </trkpt>
      <trkpt lat="43.44449" lon="6.61744">
        <ele>21.29</ele>
        <time>2012-12-09T09:26:18Z</time>
      </trkpt>
      <trkpt lat="43.44443" lon="6.61726">
        <ele>24.65</ele>
        <time>2012-12-09T09:26:37Z</time>
      </trkpt>
      <trkpt lat="43.44433" lon="6.61713">
        <ele>25.61</ele>
        <time>2012-12-09T09:26:59Z</time>
      </trkpt>
      <trkpt lat="43.44418" lon="6.61705">
        <ele>20.81</ele>
        <time>2012-12-09T09:27:34Z</time>
      </trkpt>
      <trkpt lat="43.44405" lon="6.61717">
        <ele>14.08</ele>
        <time>2012-12-09T09:28:25Z</time>
      </trkpt>
      <trkpt lat="43.44407" lon="6.61738">
        <ele>13.6</ele>
        <time>2012-12-09T09:28:57Z</time>
      </trkpt>
      <trkpt lat="43.44413" lon="6.61758">
        <ele>14.08</ele>
        <time>2012-12-09T09:29:58Z</time>
      </trkpt>
      <trkpt lat="43.44389" lon="6.61759">
        <ele>14.08</ele>
        <time>2012-12-09T09:30:23Z</time>
      </trkpt>
      <trkpt lat="43.44367" lon="6.61758">
        <ele>14.08</ele>
        <time>2012-12-09T09:30:48Z</time>
      </trkpt>
      <trkpt lat="43.44361" lon="6.6176">
        <ele>14.08</ele>
        <time>2012-12-09T09:32:41Z</time>
      </trkpt>
      <trkpt lat="43.44362" lon="6.61759">
        <ele>14.56</ele>
        <time>2012-12-09T09:33:59Z</time>
      </trkpt>
      <trkpt lat="43.44356" lon="6.61736">
        <ele>15.04</ele>
        <time>2012-12-09T09:35:28Z</time>
      </trkpt>
      <trkpt lat="43.44351" lon="6.61707">
        <ele>15.04</ele>
        <time>2012-12-09T09:35:59Z</time>
      </trkpt>
      <trkpt lat="43.44352" lon="6.61681">
        <ele>17.44</ele>
        <time>2012-12-09T09:36:45Z</time>
      </trkpt>
      <trkpt lat="43.44352" lon="6.61654">
        <ele>20.32</ele>
        <time>2012-12-09T09:37:12Z</time>
      </trkpt>
      <trkpt lat="43.4434" lon="6.61638">
        <ele>23.69</ele>
        <time>2012-12-09T09:37:45Z</time>
      </trkpt>
      <trkpt lat="43.44352" lon="6.61621">
        <ele>25.61</ele>
        <time>2012-12-09T09:38:16Z</time>
      </trkpt>
      <trkpt lat="43.4437" lon="6.61608">
        <ele>28.5</ele>
        <time>2012-12-09T09:38:40Z</time>
      </trkpt>
      <trkpt lat="43.44378" lon="6.61585">
        <ele>30.9</ele>
        <time>2012-12-09T09:39:07Z</time>
      </trkpt>
      <trkpt lat="43.44379" lon="6.61557">
        <ele>33.78</ele>
        <time>2012-12-09T09:39:29Z</time>
      </trkpt>
      <trkpt lat="43.44382" lon="6.61532">
        <ele>36.19</ele>
        <time>2012-12-09T09:39:54Z</time>
      </trkpt>
      <trkpt lat="43.44391" lon="6.61511">
        <ele>38.59</ele>
        <time>2012-12-09T09:40:21Z</time>
      </trkpt>
      <trkpt lat="43.44399" lon="6.61505">
        <ele>39.55</ele>
        <time>2012-12-09T09:41:50Z</time>
      </trkpt>
      <trkpt lat="43.44414" lon="6.61489">
        <ele>42.44</ele>
        <time>2012-12-09T09:42:30Z</time>
      </trkpt>
      <trkpt lat="43.44422" lon="6.61477">
        <ele>43.4</ele>
        <time>2012-12-09T09:44:32Z</time>
      </trkpt>
      <trkpt lat="43.44433" lon="6.61456">
        <ele>45.32</ele>
        <time>2012-12-09T09:45:07Z</time>
      </trkpt>
      <trkpt lat="43.44434" lon="6.61431">
        <ele>48.2</ele>
        <time>2012-12-09T09:45:38Z</time>
      </trkpt>
      <trkpt lat="43.4442" lon="6.61417">
        <ele>50.13</ele>
        <time>2012-12-09T09:46:14Z</time>
      </trkpt>
      <trkpt lat="43.44403" lon="6.61409">
        <ele>50.61</ele>
        <time>2012-12-09T09:46:32Z</time>
      </trkpt>
      <trkpt lat="43.44388" lon="6.61402">
        <ele>51.57</ele>
        <time>2012-12-09T09:46:52Z</time>
      </trkpt>
      <trkpt lat="43.4437" lon="6.61394">
        <ele>53.01</ele>
        <time>2012-12-09T09:47:17Z</time>
      </trkpt>
      <trkpt lat="43.44354" lon="6.61378">
        <ele>54.45</ele>
        <time>2012-12-09T09:47:38Z</time>
      </trkpt>
      <trkpt lat="43.44348" lon="6.61355">
        <ele>55.89</ele>
        <time>2012-12-09T09:47:56Z</time>
      </trkpt>
      <trkpt lat="43.44358" lon="6.61334">
        <ele>57.82</ele>
        <time>2012-12-09T09:48:20Z</time>
      </trkpt>
      <trkpt lat="43.44375" lon="6.6134">
        <ele>60.22</ele>
        <time>2012-12-09T09:48:47Z</time>
      </trkpt>
      <trkpt lat="43.4439" lon="6.61357">
        <ele>62.62</ele>
        <time>2012-12-09T09:49:13Z</time>
      </trkpt>
      <trkpt lat="43.44402" lon="6.61337">
        <ele>63.58</ele>
        <time>2012-12-09T09:49:39Z</time>
      </trkpt>
      <trkpt lat="43.44401" lon="6.6131">
        <ele>65.99</ele>
        <time>2012-12-09T09:50:08Z</time>
      </trkpt>
      <trkpt lat="43.44411" lon="6.61289">
        <ele>67.91</ele>
        <time>2012-12-09T09:50:36Z</time>
      </trkpt>
      <trkpt lat="43.44416" lon="6.61268">
        <ele>70.31</ele>
        <time>2012-12-09T09:51:00Z</time>
      </trkpt>
      <trkpt lat="43.44401" lon="6.6126">
        <ele>71.76</ele>
        <time>2012-12-09T09:51:29Z</time>
      </trkpt>
      <trkpt lat="43.44386" lon="6.61247">
        <ele>73.2</ele>
        <time>2012-12-09T09:51:50Z</time>
      </trkpt>
      <trkpt lat="43.44369" lon="6.61238">
        <ele>74.64</ele>
        <time>2012-12-09T09:52:12Z</time>
      </trkpt>
      <trkpt lat="43.4435" lon="6.61235">
        <ele>76.08</ele>
        <time>2012-12-09T09:52:39Z</time>
      </trkpt>
      <trkpt lat="43.44332" lon="6.61227">
        <ele>77.52</ele>
        <time>2012-12-09T09:53:00Z</time>
      </trkpt>
      <trkpt lat="43.44317" lon="6.61213">
        <ele>79.45</ele>
        <time>2012-12-09T09:53:20Z</time>
      </trkpt>
      <trkpt lat="43.44314" lon="6.61188">
        <ele>79.45</ele>
        <time>2012-12-09T09:53:38Z</time>
      </trkpt>
      <trkpt lat="43.44324" lon="6.61163">
        <ele>81.85</ele>
        <time>2012-12-09T09:54:02Z</time>
      </trkpt>
      <trkpt lat="43.44328" lon="6.61131">
        <ele>82.81</ele>
        <time>2012-12-09T09:54:24Z</time>
      </trkpt>
      <trkpt lat="43.4432" lon="6.61104">
        <ele>83.77</ele>
        <time>2012-12-09T09:54:46Z</time>
      </trkpt>
      <trkpt lat="43.44307" lon="6.61085">
        <ele>85.21</ele>
        <time>2012-12-09T09:55:09Z</time>
      </trkpt>
      <trkpt lat="43.44296" lon="6.61062">
        <ele>86.18</ele>
        <time>2012-12-09T09:55:32Z</time>
      </trkpt>
      <trkpt lat="43.44285" lon="6.61036">
        <ele>88.1</ele>
        <time>2012-12-09T09:55:52Z</time>
      </trkpt>
      <trkpt lat="43.44275" lon="6.61014">
        <ele>90.02</ele>
        <time>2012-12-09T09:56:11Z</time>
      </trkpt>
      <trkpt lat="43.44266" lon="6.60993">
        <ele>90.98</ele>
        <time>2012-12-09T09:56:31Z</time>
      </trkpt>
      <trkpt lat="43.44263" lon="6.6097">
        <ele>92.9</ele>
        <time>2012-12-09T09:57:32Z</time>
      </trkpt>
      <trkpt lat="43.44259" lon="6.60942">
        <ele>92.9</ele>
        <time>2012-12-09T09:57:53Z</time>
      </trkpt>
      <trkpt lat="43.4425" lon="6.60914">
        <ele>92.42</ele>
        <time>2012-12-09T09:58:16Z</time>
      </trkpt>
      <trkpt lat="43.4424" lon="6.6089">
        <ele>90.98</ele>
        <time>2012-12-09T09:58:37Z</time>
      </trkpt>
      <trkpt lat="43.44226" lon="6.60867">
        <ele>90.5</ele>
        <time>2012-12-09T10:00:22Z</time>
      </trkpt>
      <trkpt lat="43.4421" lon="6.60856">
        <ele>90.5</ele>
        <time>2012-12-09T10:00:42Z</time>
      </trkpt>
      <trkpt lat="43.44194" lon="6.60841">
        <ele>91.94</ele>
        <time>2012-12-09T10:01:03Z</time>
      </trkpt>
      <trkpt lat="43.44175" lon="6.60825">
        <ele>90.98</ele>
        <time>2012-12-09T10:01:22Z</time>
      </trkpt>
      <trkpt lat="43.44166" lon="6.60798">
        <ele>90.5</ele>
        <time>2012-12-09T10:01:40Z</time>
      </trkpt>
      <trkpt lat="43.44168" lon="6.60769">
        <ele>90.5</ele>
        <time>2012-12-09T10:01:58Z</time>
      </trkpt>
      <trkpt lat="43.44169" lon="6.60738">
        <ele>90.02</ele>
        <time>2012-12-09T10:02:23Z</time>
      </trkpt>
      <trkpt lat="43.44171" lon="6.60712">
        <ele>90.02</ele>
        <time>2012-12-09T10:03:03Z</time>
      </trkpt>
      <trkpt lat="43.44176" lon="6.60686">
        <ele>90.5</ele>
        <time>2012-12-09T10:03:21Z</time>
      </trkpt>
      <trkpt lat="43.44179" lon="6.60653">
        <ele>90.5</ele>
        <time>2012-12-09T10:03:49Z</time>
      </trkpt>
      <trkpt lat="43.44186" lon="6.60627">
        <ele>90.98</ele>
        <time>2012-12-09T10:04:27Z</time>
      </trkpt>
      <trkpt lat="43.44196" lon="6.60598">
        <ele>91.94</ele>
        <time>2012-12-09T10:05:03Z</time>
      </trkpt>
      <trkpt lat="43.44199" lon="6.60569">
        <ele>92.42</ele>
        <time>2012-12-09T10:05:40Z</time>
      </trkpt>
      <trkpt lat="43.44205" lon="6.60542">
        <ele>93.87</ele>
        <time>2012-12-09T10:06:14Z</time>
      </trkpt>
      <trkpt lat="43.44207" lon="6.60512">
        <ele>95.31</ele>
        <time>2012-12-09T10:06:45Z</time>
      </trkpt>
      <trkpt lat="43.4421" lon="6.60483">
        <ele>97.23</ele>
        <time>2012-12-09T10:07:16Z</time>
      </trkpt>
      <trkpt lat="43.44206" lon="6.60455">
        <ele>99.15</ele>
        <time>2012-12-09T10:07:38Z</time>
      </trkpt>
      <trkpt lat="43.44204" lon="6.60424">
        <ele>101.56</ele>
        <time>2012-12-09T10:08:21Z</time>
      </trkpt>
      <trkpt lat="43.44204" lon="6.60404">
        <ele>103</ele>
        <time>2012-12-09T10:11:33Z</time>
      </trkpt>
      <trkpt lat="43.44216" lon="6.60382">
        <ele>104.92</ele>
        <time>2012-12-09T10:12:12Z</time>
      </trkpt>
      <trkpt lat="43.44231" lon="6.6036">
        <ele>105.4</ele>
        <time>2012-12-09T10:12:36Z</time>
      </trkpt>
      <trkpt lat="43.44233" lon="6.60336">
        <ele>106.84</ele>
        <time>2012-12-09T10:13:00Z</time>
      </trkpt>
      <trkpt lat="43.44234" lon="6.60305">
        <ele>107.32</ele>
        <time>2012-12-09T10:13:20Z</time>
      </trkpt>
      <trkpt lat="43.44237" lon="6.60278">
        <ele>109.25</ele>
        <time>2012-12-09T10:13:43Z</time>
      </trkpt>
      <trkpt lat="43.44251" lon="6.60257">
        <ele>112.13</ele>
        <time>2012-12-09T10:14:05Z</time>
      </trkpt>
      <trkpt lat="43.44252" lon="6.60227">
        <ele>113.57</ele>
        <time>2012-12-09T10:14:32Z</time>
      </trkpt>
      <trkpt lat="43.44259" lon="6.60207">
        <ele>115.98</ele>
        <time>2012-12-09T10:15:01Z</time>
      </trkpt>
      <trkpt lat="43.44262" lon="6.60185">
        <ele>117.9</ele>
        <time>2012-12-09T10:15:21Z</time>
      </trkpt>
      <trkpt lat="43.44275" lon="6.6016">
        <ele>119.82</ele>
        <time>2012-12-09T10:15:44Z</time>
      </trkpt>
      <trkpt lat="43.44297" lon="6.60146">
        <ele>122.71</ele>
        <time>2012-12-09T10:16:05Z</time>
      </trkpt>
      <trkpt lat="43.44316" lon="6.60144">
        <ele>126.55</ele>
        <time>2012-12-09T10:16:37Z</time>
      </trkpt>
      <trkpt lat="43.44334" lon="6.60125">
        <ele>126.07</ele>
        <time>2012-12-09T10:17:06Z</time>
      </trkpt>
      <trkpt lat="43.44354" lon="6.6011">
        <ele>125.11</ele>
        <time>2012-12-09T10:17:29Z</time>
      </trkpt>
      <trkpt lat="43.44361" lon="6.60096">
        <ele>126.55</ele>
        <time>2012-12-09T10:19:36Z</time>
      </trkpt>
      <trkpt lat="43.44367" lon="6.60071">
        <ele>128.95</ele>
        <time>2012-12-09T10:20:13Z</time>
      </trkpt>
      <trkpt lat="43.44369" lon="6.60039">
        <ele>130.4</ele>
        <time>2012-12-09T10:20:37Z</time>
      </trkpt>
      <trkpt lat="43.44374" lon="6.60021">
        <ele>132.8</ele>
        <time>2012-12-09T10:20:59Z</time>
      </trkpt>
      <trkpt lat="43.44382" lon="6.59999">
        <ele>137.13</ele>
        <time>2012-12-09T10:21:26Z</time>
      </trkpt>
      <trkpt lat="43.44386" lon="6.59976">
        <ele>140.01</ele>
        <time>2012-12-09T10:21:51Z</time>
      </trkpt>
      <trkpt lat="43.44398" lon="6.59965">
        <ele>142.89</ele>
        <time>2012-12-09T10:22:42Z</time>
      </trkpt>
      <trkpt lat="43.44398" lon="6.59963">
        <ele>142.41</ele>
        <time>2012-12-09T10:25:04Z</time>
      </trkpt>
      <trkpt lat="43.44406" lon="6.59953">
        <ele>143.85</ele>
        <time>2012-12-09T10:30:53Z</time>
      </trkpt>
      <trkpt lat="43.44419" lon="6.59934">
        <ele>143.85</ele>
        <time>2012-12-09T10:31:14Z</time>
      </trkpt>
      <trkpt lat="43.44429" lon="6.59907">
        <ele>144.82</ele>
        <time>2012-12-09T10:31:36Z</time>
      </trkpt>
      <trkpt lat="43.44445" lon="6.59883">
        <ele>145.78</ele>
        <time>2012-12-09T10:31:59Z</time>
      </trkpt>
      <trkpt lat="43.44452" lon="6.59858">
        <ele>147.22</ele>
        <time>2012-12-09T10:32:22Z</time>
      </trkpt>
      <trkpt lat="43.44465" lon="6.5984">
        <ele>149.62</ele>
        <time>2012-12-09T10:32:53Z</time>
      </trkpt>
      <trkpt lat="43.44484" lon="6.59831">
        <ele>153.47</ele>
        <time>2012-12-09T10:33:20Z</time>
      </trkpt>
      <trkpt lat="43.44506" lon="6.59827">
        <ele>155.87</ele>
        <time>2012-12-09T10:33:48Z</time>
      </trkpt>
      <trkpt lat="43.44527" lon="6.59816">
        <ele>157.79</ele>
        <time>2012-12-09T10:34:15Z</time>
      </trkpt>
      <trkpt lat="43.4455" lon="6.5981">
        <ele>160.68</ele>
        <time>2012-12-09T10:34:49Z</time>
      </trkpt>
      <trkpt lat="43.44568" lon="6.59818">
        <ele>165</ele>
        <time>2012-12-09T10:35:24Z</time>
      </trkpt>
      <trkpt lat="43.44589" lon="6.59825">
        <ele>168.85</ele>
        <time>2012-12-09T10:35:59Z</time>
      </trkpt>
      <trkpt lat="43.44611" lon="6.59826">
        <ele>172.21</ele>
        <time>2012-12-09T10:36:38Z</time>
      </trkpt>
      <trkpt lat="43.44639" lon="6.59815">
        <ele>174.14</ele>
        <time>2012-12-09T10:37:18Z</time>
      </trkpt>
      <trkpt lat="43.4466" lon="6.59806">
        <ele>171.73</ele>
        <time>2012-12-09T10:37:41Z</time>
      </trkpt>
      <trkpt lat="43.44678" lon="6.59799">
        <ele>173.66</ele>
        <time>2012-12-09T10:37:57Z</time>
      </trkpt>
      <trkpt lat="43.44695" lon="6.59783">
        <ele>175.1</ele>
        <time>2012-12-09T10:38:20Z</time>
      </trkpt>
      <trkpt lat="43.4471" lon="6.59798">
        <ele>177.02</ele>
        <time>2012-12-09T10:38:44Z</time>
      </trkpt>
      <trkpt lat="43.44719" lon="6.59821">
        <ele>179.9</ele>
        <time>2012-12-09T10:39:07Z</time>
      </trkpt>
      <trkpt lat="43.44734" lon="6.59811">
        <ele>178.94</ele>
        <time>2012-12-09T10:40:26Z</time>
      </trkpt>
      <trkpt lat="43.44737" lon="6.59784">
        <ele>179.42</ele>
        <time>2012-12-09T10:40:43Z</time>
      </trkpt>
      <trkpt lat="43.44736" lon="6.59761">
        <ele>180.87</ele>
        <time>2012-12-09T10:41:24Z</time>
      </trkpt>
      <trkpt lat="43.4474" lon="6.59737">
        <ele>181.83</ele>
        <time>2012-12-09T10:41:43Z</time>
      </trkpt>
      <trkpt lat="43.44738" lon="6.59711">
        <ele>181.83</ele>
        <time>2012-12-09T10:42:05Z</time>
      </trkpt>
      <trkpt lat="43.44731" lon="6.59677">
        <ele>179.9</ele>
        <time>2012-12-09T10:42:31Z</time>
      </trkpt>
      <trkpt lat="43.44714" lon="6.59662">
        <ele>179.9</ele>
        <time>2012-12-09T10:42:52Z</time>
      </trkpt>
      <trkpt lat="43.4469" lon="6.5966">
        <ele>182.31</ele>
        <time>2012-12-09T10:43:15Z</time>
      </trkpt>
      <trkpt lat="43.44684" lon="6.5963">
        <ele>184.23</ele>
        <time>2012-12-09T10:43:37Z</time>
      </trkpt>
      <trkpt lat="43.44682" lon="6.59599">
        <ele>187.59</ele>
        <time>2012-12-09T10:44:03Z</time>
      </trkpt>
      <trkpt lat="43.44694" lon="6.59572">
        <ele>187.59</ele>
        <time>2012-12-09T10:44:24Z</time>
      </trkpt>
      <trkpt lat="43.44703" lon="6.59546">
        <ele>188.08</ele>
        <time>2012-12-09T10:44:42Z</time>
      </trkpt>
      <trkpt lat="43.44713" lon="6.59515">
        <ele>189.04</ele>
        <time>2012-12-09T10:45:05Z</time>
      </trkpt>
      <trkpt lat="43.44726" lon="6.59489">
        <ele>190</ele>
        <time>2012-12-09T10:45:27Z</time>
      </trkpt>
      <trkpt lat="43.44747" lon="6.59474">
        <ele>191.92</ele>
        <time>2012-12-09T10:46:03Z</time>
      </trkpt>
      <trkpt lat="43.44769" lon="6.59472">
        <ele>193.36</ele>
        <time>2012-12-09T10:46:26Z</time>
      </trkpt>
      <trkpt lat="43.44786" lon="6.59456">
        <ele>194.32</ele>
        <time>2012-12-09T10:46:46Z</time>
      </trkpt>
      <trkpt lat="43.448" lon="6.59435">
        <ele>196.73</ele>
        <time>2012-12-09T10:47:07Z</time>
      </trkpt>
      <trkpt lat="43.44808" lon="6.59424">
        <ele>197.21</ele>
        <time>2012-12-09T10:49:09Z</time>
      </trkpt>
      <trkpt lat="43.44798" lon="6.59404">
        <ele>195.28</ele>
        <time>2012-12-09T10:50:47Z</time>
      </trkpt>
      <trkpt lat="43.44783" lon="6.59385">
        <ele>195.28</ele>
        <time>2012-12-09T10:51:09Z</time>
      </trkpt>
      <trkpt lat="43.44766" lon="6.59373">
        <ele>197.69</ele>
        <time>2012-12-09T10:51:54Z</time>
      </trkpt>
      <trkpt lat="43.44752" lon="6.59353">
        <ele>200.09</ele>
        <time>2012-12-09T10:52:20Z</time>
      </trkpt>
      <trkpt lat="43.44729" lon="6.59339">
        <ele>199.13</ele>
        <time>2012-12-09T10:52:38Z</time>
      </trkpt>
      <trkpt lat="43.44708" lon="6.59327">
        <ele>198.17</ele>
        <time>2012-12-09T10:52:58Z</time>
      </trkpt>
      <trkpt lat="43.44684" lon="6.59317">
        <ele>196.73</ele>
        <time>2012-12-09T10:53:24Z</time>
      </trkpt>
      <trkpt lat="43.44663" lon="6.59304">
        <ele>197.21</ele>
        <time>2012-12-09T10:53:43Z</time>
      </trkpt>
      <trkpt lat="43.44641" lon="6.59293">
        <ele>197.69</ele>
        <time>2012-12-09T10:54:01Z</time>
      </trkpt>
      <trkpt lat="43.44619" lon="6.59288">
        <ele>197.21</ele>
        <time>2012-12-09T10:54:17Z</time>
      </trkpt>
      <trkpt lat="43.44599" lon="6.59287">
        <ele>196.25</ele>
        <time>2012-12-09T10:54:32Z</time>
      </trkpt>
      <trkpt lat="43.44579" lon="6.59286">
        <ele>196.25</ele>
        <time>2012-12-09T10:54:51Z</time>
      </trkpt>
      <trkpt lat="43.44564" lon="6.59273">
        <ele>195.28</ele>
        <time>2012-12-09T10:55:32Z</time>
      </trkpt>
      <trkpt lat="43.44564" lon="6.5925">
        <ele>195.77</ele>
        <time>2012-12-09T10:55:46Z</time>
      </trkpt>
      <trkpt lat="43.44564" lon="6.59224">
        <ele>196.25</ele>
        <time>2012-12-09T10:56:02Z</time>
      </trkpt>
      <trkpt lat="43.44565" lon="6.59198">
        <ele>197.69</ele>
        <time>2012-12-09T10:56:29Z</time>
      </trkpt>
      <trkpt lat="43.44564" lon="6.59171">
        <ele>198.65</ele>
        <time>2012-12-09T10:56:44Z</time>
      </trkpt>
      <trkpt lat="43.44567" lon="6.59146">
        <ele>200.09</ele>
        <time>2012-12-09T10:56:58Z</time>
      </trkpt>
      <trkpt lat="43.44566" lon="6.59122">
        <ele>201.53</ele>
        <time>2012-12-09T10:57:13Z</time>
      </trkpt>
      <trkpt lat="43.44569" lon="6.59099">
        <ele>204.42</ele>
        <time>2012-12-09T10:57:28Z</time>
      </trkpt>
      <trkpt lat="43.4457" lon="6.59071">
        <ele>204.9</ele>
        <time>2012-12-09T10:57:46Z</time>
      </trkpt>
      <trkpt lat="43.44572" lon="6.59045">
        <ele>205.86</ele>
        <time>2012-12-09T10:58:03Z</time>
      </trkpt>
      <trkpt lat="43.44575" lon="6.59024">
        <ele>205.86</ele>
        <time>2012-12-09T10:58:22Z</time>
      </trkpt>
      <trkpt lat="43.44583" lon="6.58998">
        <ele>205.86</ele>
        <time>2012-12-09T10:58:38Z</time>
      </trkpt>
      <trkpt lat="43.44591" lon="6.58975">
        <ele>206.82</ele>
        <time>2012-12-09T10:59:00Z</time>
      </trkpt>
      <trkpt lat="43.446" lon="6.58953">
        <ele>207.3</ele>
        <time>2012-12-09T10:59:16Z</time>
      </trkpt>
      <trkpt lat="43.44608" lon="6.5893">
        <ele>207.78</ele>
        <time>2012-12-09T10:59:31Z</time>
      </trkpt>
      <trkpt lat="43.44619" lon="6.58909">
        <ele>208.26</ele>
        <time>2012-12-09T10:59:48Z</time>
      </trkpt>
      <trkpt lat="43.44627" lon="6.58884">
        <ele>207.78</ele>
        <time>2012-12-09T11:00:06Z</time>
      </trkpt>
      <trkpt lat="43.44638" lon="6.5886">
        <ele>207.78</ele>
        <time>2012-12-09T11:00:25Z</time>
      </trkpt>
      <trkpt lat="43.44648" lon="6.58839">
        <ele>207.78</ele>
        <time>2012-12-09T11:00:42Z</time>
      </trkpt>
      <trkpt lat="43.44659" lon="6.58814">
        <ele>208.74</ele>
        <time>2012-12-09T11:01:01Z</time>
      </trkpt>
      <trkpt lat="43.44668" lon="6.58786">
        <ele>209.7</ele>
        <time>2012-12-09T11:01:21Z</time>
      </trkpt>
      <trkpt lat="43.4468" lon="6.58759">
        <ele>209.22</ele>
        <time>2012-12-09T11:01:46Z</time>
      </trkpt>
      <trkpt lat="43.44688" lon="6.58726">
        <ele>208.74</ele>
        <time>2012-12-09T11:02:07Z</time>
      </trkpt>
      <trkpt lat="43.44666" lon="6.58716">
        <ele>210.67</ele>
        <time>2012-12-09T11:02:52Z</time>
      </trkpt>
      <trkpt lat="43.44646" lon="6.5871">
        <ele>212.59</ele>
        <time>2012-12-09T11:03:12Z</time>
      </trkpt>
      <trkpt lat="43.44624" lon="6.587">
        <ele>214.03</ele>
        <time>2012-12-09T11:03:32Z</time>
      </trkpt>
      <trkpt lat="43.44604" lon="6.58692">
        <ele>214.51</ele>
        <time>2012-12-09T11:03:53Z</time>
      </trkpt>
      <trkpt lat="43.44578" lon="6.58687">
        <ele>214.99</ele>
        <time>2012-12-09T11:04:10Z</time>
      </trkpt>
      <trkpt lat="43.44557" lon="6.58681">
        <ele>214.51</ele>
        <time>2012-12-09T11:04:28Z</time>
      </trkpt>
      <trkpt lat="43.44536" lon="6.58672">
        <ele>213.07</ele>
        <time>2012-12-09T11:04:44Z</time>
      </trkpt>
      <trkpt lat="43.44516" lon="6.58667">
        <ele>211.63</ele>
        <time>2012-12-09T11:05:02Z</time>
      </trkpt>
      <trkpt lat="43.44503" lon="6.58659">
        <ele>210.67</ele>
        <time>2012-12-09T11:07:25Z</time>
      </trkpt>
      <trkpt lat="43.44508" lon="6.58659">
        <ele>211.15</ele>
        <time>2012-12-09T11:09:42Z</time>
      </trkpt>
      <trkpt lat="43.44529" lon="6.58665">
        <ele>211.63</ele>
        <time>2012-12-09T11:10:13Z</time>
      </trkpt>
      <trkpt lat="43.44548" lon="6.58677">
        <ele>213.55</ele>
        <time>2012-12-09T11:10:34Z</time>
      </trkpt>
      <trkpt lat="43.44567" lon="6.58683">
        <ele>214.99</ele>
        <time>2012-12-09T11:10:51Z</time>
      </trkpt>
      <trkpt lat="43.44591" lon="6.58686">
        <ele>214.51</ele>
        <time>2012-12-09T11:11:12Z</time>
      </trkpt>
      <trkpt lat="43.44619" lon="6.58693">
        <ele>214.03</ele>
        <time>2012-12-09T11:11:37Z</time>
      </trkpt>
      <trkpt lat="43.44641" lon="6.58701">
        <ele>212.59</ele>
        <time>2012-12-09T11:12:05Z</time>
      </trkpt>
      <trkpt lat="43.4467" lon="6.58712">
        <ele>210.19</ele>
        <time>2012-12-09T11:12:32Z</time>
      </trkpt>
      <trkpt lat="43.44691" lon="6.58723">
        <ele>208.74</ele>
        <time>2012-12-09T11:12:55Z</time>
      </trkpt>
      <trkpt lat="43.44701" lon="6.58704">
        <ele>207.78</ele>
        <time>2012-12-09T11:13:31Z</time>
      </trkpt>
      <trkpt lat="43.44721" lon="6.5869">
        <ele>207.78</ele>
        <time>2012-12-09T11:13:54Z</time>
      </trkpt>
      <trkpt lat="43.44739" lon="6.58677">
        <ele>207.3</ele>
        <time>2012-12-09T11:14:13Z</time>
      </trkpt>
      <trkpt lat="43.44755" lon="6.58662">
        <ele>205.86</ele>
        <time>2012-12-09T11:14:59Z</time>
      </trkpt>
      <trkpt lat="43.44774" lon="6.58651">
        <ele>204.9</ele>
        <time>2012-12-09T11:15:16Z</time>
      </trkpt>
      <trkpt lat="43.44795" lon="6.58647">
        <ele>202.98</ele>
        <time>2012-12-09T11:15:34Z</time>
      </trkpt>
      <trkpt lat="43.44807" lon="6.58659">
        <ele>202.01</ele>
        <time>2012-12-09T11:16:21Z</time>
      </trkpt>
      <trkpt lat="43.44817" lon="6.58684">
        <ele>201.05</ele>
        <time>2012-12-09T11:16:40Z</time>
      </trkpt>
      <trkpt lat="43.44837" lon="6.58695">
        <ele>200.09</ele>
        <time>2012-12-09T11:16:59Z</time>
      </trkpt>
      <trkpt lat="43.44858" lon="6.58689">
        <ele>200.09</ele>
        <time>2012-12-09T11:17:18Z</time>
      </trkpt>
      <trkpt lat="43.44881" lon="6.58698">
        <ele>203.46</ele>
        <time>2012-12-09T11:17:43Z</time>
      </trkpt>
      <trkpt lat="43.44878" lon="6.58732">
        <ele>202.01</ele>
        <time>2012-12-09T11:18:06Z</time>
      </trkpt>
      <trkpt lat="43.44875" lon="6.58763">
        <ele>200.57</ele>
        <time>2012-12-09T11:18:32Z</time>
      </trkpt>
      <trkpt lat="43.44868" lon="6.58788">
        <ele>194.32</ele>
        <time>2012-12-09T11:19:19Z</time>
      </trkpt>
      <trkpt lat="43.4487" lon="6.58813">
        <ele>186.15</ele>
        <time>2012-12-09T11:19:58Z</time>
      </trkpt>
      <trkpt lat="43.44868" lon="6.5884">
        <ele>180.87</ele>
        <time>2012-12-09T11:20:20Z</time>
      </trkpt>
      <trkpt lat="43.44884" lon="6.58855">
        <ele>177.02</ele>
        <time>2012-12-09T11:20:47Z</time>
      </trkpt>
      <trkpt lat="43.44904" lon="6.58861">
        <ele>172.69</ele>
        <time>2012-12-09T11:21:12Z</time>
      </trkpt>
      <trkpt lat="43.44921" lon="6.5887">
        <ele>168.37</ele>
        <time>2012-12-09T11:21:35Z</time>
      </trkpt>
      <trkpt lat="43.4494" lon="6.58877">
        <ele>165</ele>
        <time>2012-12-09T11:22:28Z</time>
      </trkpt>
      <trkpt lat="43.44936" lon="6.58905">
        <ele>165.48</ele>
        <time>2012-12-09T11:22:50Z</time>
      </trkpt>
      <trkpt lat="43.44931" lon="6.58928">
        <ele>166.45</ele>
        <time>2012-12-09T11:23:19Z</time>
      </trkpt>
      <trkpt lat="43.44924" lon="6.58957">
        <ele>166.93</ele>
        <time>2012-12-09T11:23:41Z</time>
      </trkpt>
      <trkpt lat="43.44914" lon="6.58983">
        <ele>167.89</ele>
        <time>2012-12-09T11:24:03Z</time>
      </trkpt>
      <trkpt lat="43.44908" lon="6.59009">
        <ele>169.33</ele>
        <time>2012-12-09T11:24:31Z</time>
      </trkpt>
      <trkpt lat="43.44901" lon="6.5904">
        <ele>170.77</ele>
        <time>2012-12-09T11:24:59Z</time>
      </trkpt>
      <trkpt lat="43.44894" lon="6.59065">
        <ele>172.21</ele>
        <time>2012-12-09T11:25:20Z</time>
      </trkpt>
      <trkpt lat="43.44888" lon="6.59087">
        <ele>173.17</ele>
        <time>2012-12-09T11:25:41Z</time>
      </trkpt>
      <trkpt lat="43.44877" lon="6.59109">
        <ele>175.58</ele>
        <time>2012-12-09T11:26:06Z</time>
      </trkpt>
      <trkpt lat="43.44866" lon="6.59132">
        <ele>178.46</ele>
        <time>2012-12-09T11:26:27Z</time>
      </trkpt>
      <trkpt lat="43.44866" lon="6.59158">
        <ele>178.46</ele>
        <time>2012-12-09T11:26:48Z</time>
      </trkpt>
      <trkpt lat="43.44852" lon="6.59186">
        <ele>178.94</ele>
        <time>2012-12-09T11:27:11Z</time>
      </trkpt>
      <trkpt lat="43.44843" lon="6.59219">
        <ele>179.42</ele>
        <time>2012-12-09T11:27:41Z</time>
      </trkpt>
      <trkpt lat="43.44832" lon="6.59252">
        <ele>180.87</ele>
        <time>2012-12-09T11:28:10Z</time>
      </trkpt>
      <trkpt lat="43.44822" lon="6.59278">
        <ele>181.83</ele>
        <time>2012-12-09T11:28:35Z</time>
      </trkpt>
      <trkpt lat="43.44809" lon="6.59304">
        <ele>183.75</ele>
        <time>2012-12-09T11:28:57Z</time>
      </trkpt>
      <trkpt lat="43.44796" lon="6.59326">
        <ele>186.63</ele>
        <time>2012-12-09T11:29:19Z</time>
      </trkpt>
      <trkpt lat="43.44786" lon="6.59353">
        <ele>188.56</ele>
        <time>2012-12-09T11:29:40Z</time>
      </trkpt>
      <trkpt lat="43.44782" lon="6.5938">
        <ele>190.48</ele>
        <time>2012-12-09T11:29:59Z</time>
      </trkpt>
      <trkpt lat="43.44794" lon="6.59403">
        <ele>190.96</ele>
        <time>2012-12-09T11:30:22Z</time>
      </trkpt>
      <trkpt lat="43.44807" lon="6.5942">
        <ele>192.4</ele>
        <time>2012-12-09T11:31:17Z</time>
      </trkpt>
      <trkpt lat="43.44822" lon="6.59414">
        <ele>192.4</ele>
        <time>2012-12-09T11:32:11Z</time>
      </trkpt>
      <trkpt lat="43.44836" lon="6.59398">
        <ele>193.36</ele>
        <time>2012-12-09T11:32:29Z</time>
      </trkpt>
      <trkpt lat="43.44852" lon="6.59387">
        <ele>193.84</ele>
        <time>2012-12-09T11:32:51Z</time>
      </trkpt>
      <trkpt lat="43.44869" lon="6.59377">
        <ele>192.88</ele>
        <time>2012-12-09T11:33:12Z</time>
      </trkpt>
      <trkpt lat="43.44881" lon="6.59358">
        <ele>190.48</ele>
        <time>2012-12-09T11:33:35Z</time>
      </trkpt>
      <trkpt lat="43.44896" lon="6.59339">
        <ele>190.48</ele>
        <time>2012-12-09T11:33:58Z</time>
      </trkpt>
      <trkpt lat="43.44912" lon="6.59318">
        <ele>191.44</ele>
        <time>2012-12-09T11:34:23Z</time>
      </trkpt>
      <trkpt lat="43.44918" lon="6.59298">
        <ele>192.88</ele>
        <time>2012-12-09T11:34:58Z</time>
      </trkpt>
      <trkpt lat="43.44925" lon="6.59272">
        <ele>194.8</ele>
        <time>2012-12-09T11:35:20Z</time>
      </trkpt>
      <trkpt lat="43.44931" lon="6.59249">
        <ele>196.25</ele>
        <time>2012-12-09T11:35:40Z</time>
      </trkpt>
      <trkpt lat="43.44949" lon="6.59245">
        <ele>198.17</ele>
        <time>2012-12-09T11:36:01Z</time>
      </trkpt>
      <trkpt lat="43.44951" lon="6.59262">
        <ele>199.61</ele>
        <time>2012-12-09T11:36:26Z</time>
      </trkpt>
      <trkpt lat="43.44951" lon="6.59285">
        <ele>197.69</ele>
        <time>2012-12-09T11:36:46Z</time>
      </trkpt>
      <trkpt lat="43.44952" lon="6.59308">
        <ele>197.21</ele>
        <time>2012-12-09T11:37:51Z</time>
      </trkpt>
      <trkpt lat="43.44963" lon="6.59324">
        <ele>199.13</ele>
        <time>2012-12-09T11:38:27Z</time>
      </trkpt>
      <trkpt lat="43.44978" lon="6.59324">
        <ele>202.98</ele>
        <time>2012-12-09T11:38:54Z</time>
      </trkpt>
      <trkpt lat="43.44991" lon="6.59335">
        <ele>205.86</ele>
        <time>2012-12-09T11:39:17Z</time>
      </trkpt>
      <trkpt lat="43.44999" lon="6.59348">
        <ele>209.22</ele>
        <time>2012-12-09T11:39:58Z</time>
      </trkpt>
      <trkpt lat="43.45016" lon="6.59355">
        <ele>213.07</ele>
        <time>2012-12-09T11:40:44Z</time>
      </trkpt>
      <trkpt lat="43.45034" lon="6.59355">
        <ele>218.36</ele>
        <time>2012-12-09T11:41:47Z</time>
      </trkpt>
      <trkpt lat="43.45047" lon="6.59353">
        <ele>220.76</ele>
        <time>2012-12-09T11:42:53Z</time>
      </trkpt>
      <trkpt lat="43.4505" lon="6.59355">
        <ele>224.12</ele>
        <time>2012-12-09T12:29:08Z</time>
      </trkpt>
      <trkpt lat="43.45063" lon="6.59358">
        <ele>226.05</ele>
        <time>2012-12-09T12:31:01Z</time>
      </trkpt>
      <trkpt lat="43.45085" lon="6.59358">
        <ele>227.01</ele>
        <time>2012-12-09T12:31:29Z</time>
      </trkpt>
      <trkpt lat="43.45111" lon="6.59363">
        <ele>225.57</ele>
        <time>2012-12-09T12:31:58Z</time>
      </trkpt>
      <trkpt lat="43.45129" lon="6.59378">
        <ele>226.05</ele>
        <time>2012-12-09T12:32:20Z</time>
      </trkpt>
      <trkpt lat="43.45149" lon="6.59374">
        <ele>223.16</ele>
        <time>2012-12-09T12:32:43Z</time>
      </trkpt>
      <trkpt lat="43.45169" lon="6.59373">
        <ele>222.68</ele>
        <time>2012-12-09T12:33:03Z</time>
      </trkpt>
      <trkpt lat="43.45191" lon="6.59374">
        <ele>223.16</ele>
        <time>2012-12-09T12:33:24Z</time>
      </trkpt>
      <trkpt lat="43.45214" lon="6.59389">
        <ele>225.57</ele>
        <time>2012-12-09T12:33:59Z</time>
      </trkpt>
      <trkpt lat="43.45239" lon="6.59395">
        <ele>224.12</ele>
        <time>2012-12-09T12:34:22Z</time>
      </trkpt>
      <trkpt lat="43.45258" lon="6.59399">
        <ele>224.12</ele>
        <time>2012-12-09T12:34:41Z</time>
      </trkpt>
      <trkpt lat="43.45286" lon="6.59408">
        <ele>223.16</ele>
        <time>2012-12-09T12:35:15Z</time>
      </trkpt>
      <trkpt lat="43.45313" lon="6.59417">
        <ele>221.24</ele>
        <time>2012-12-09T12:36:29Z</time>
      </trkpt>
      <trkpt lat="43.45343" lon="6.59418">
        <ele>220.28</ele>
        <time>2012-12-09T12:37:29Z</time>
      </trkpt>
      <trkpt lat="43.45369" lon="6.59428">
        <ele>220.28</ele>
        <time>2012-12-09T12:38:16Z</time>
      </trkpt>
      <trkpt lat="43.45382" lon="6.59443">
        <ele>218.36</ele>
        <time>2012-12-09T12:38:47Z</time>
      </trkpt>
      <trkpt lat="43.45391" lon="6.59451">
        <ele>218.36</ele>
        <time>2012-12-09T12:39:54Z</time>
      </trkpt>
      <trkpt lat="43.45397" lon="6.59463">
        <ele>216.43</ele>
        <time>2012-12-09T12:40:59Z</time>
      </trkpt>
      <trkpt lat="43.45399" lon="6.59465">
        <ele>214.99</ele>
        <time>2012-12-09T12:43:55Z</time>
      </trkpt>
      <trkpt lat="43.45406" lon="6.5948">
        <ele>210.67</ele>
        <time>2012-12-09T12:44:40Z</time>
      </trkpt>
      <trkpt lat="43.4541" lon="6.59492">
        <ele>205.86</ele>
        <time>2012-12-09T12:45:16Z</time>
      </trkpt>
      <trkpt lat="43.45417" lon="6.59508">
        <ele>201.53</ele>
        <time>2012-12-09T12:45:53Z</time>
      </trkpt>
      <trkpt lat="43.45416" lon="6.59522">
        <ele>198.17</ele>
        <time>2012-12-09T12:46:53Z</time>
      </trkpt>
      <trkpt lat="43.45417" lon="6.59542">
        <ele>193.36</ele>
        <time>2012-12-09T12:47:43Z</time>
      </trkpt>
      <trkpt lat="43.45412" lon="6.59544">
        <ele>192.88</ele>
        <time>2012-12-09T12:48:30Z</time>
      </trkpt>
      <trkpt lat="43.45403" lon="6.59555">
        <ele>190.96</ele>
        <time>2012-12-09T12:49:35Z</time>
      </trkpt>
      <trkpt lat="43.45399" lon="6.5956">
        <ele>191.92</ele>
        <time>2012-12-09T12:50:24Z</time>
      </trkpt>
      <trkpt lat="43.45399" lon="6.59566">
        <ele>193.84</ele>
        <time>2012-12-09T12:51:43Z</time>
      </trkpt>
      <trkpt lat="43.45402" lon="6.59582">
        <ele>190</ele>
        <time>2012-12-09T12:54:18Z</time>
      </trkpt>
      <trkpt lat="43.45417" lon="6.59609">
        <ele>183.27</ele>
        <time>2012-12-09T12:55:33Z</time>
      </trkpt>
      <trkpt lat="43.45421" lon="6.59628">
        <ele>179.42</ele>
        <time>2012-12-09T12:56:46Z</time>
      </trkpt>
      <trkpt lat="43.4544" lon="6.59636">
        <ele>171.73</ele>
        <time>2012-12-09T12:57:42Z</time>
      </trkpt>
      <trkpt lat="43.4545" lon="6.59641">
        <ele>168.85</ele>
        <time>2012-12-09T12:58:09Z</time>
      </trkpt>
      <trkpt lat="43.45462" lon="6.59647">
        <ele>165</ele>
        <time>2012-12-09T12:58:56Z</time>
      </trkpt>
      <trkpt lat="43.4547" lon="6.59665">
        <ele>160.68</ele>
        <time>2012-12-09T12:59:34Z</time>
      </trkpt>
      <trkpt lat="43.45476" lon="6.59678">
        <ele>156.83</ele>
        <time>2012-12-09T13:00:06Z</time>
      </trkpt>
      <trkpt lat="43.45481" lon="6.59686">
        <ele>153.95</ele>
        <time>2012-12-09T13:02:37Z</time>
      </trkpt>
      <trkpt lat="43.45493" lon="6.59705">
        <ele>146.74</ele>
        <time>2012-12-09T13:03:37Z</time>
      </trkpt>
      <trkpt lat="43.45508" lon="6.59725">
        <ele>142.41</ele>
        <time>2012-12-09T13:04:19Z</time>
      </trkpt>
      <trkpt lat="43.45518" lon="6.5974">
        <ele>136.16</ele>
        <time>2012-12-09T13:05:07Z</time>
      </trkpt>
      <trkpt lat="43.45519" lon="6.59757">
        <ele>130.4</ele>
        <time>2012-12-09T13:05:57Z</time>
      </trkpt>
      <trkpt lat="43.45529" lon="6.59766">
        <ele>125.59</ele>
        <time>2012-12-09T13:07:19Z</time>
      </trkpt>
      <trkpt lat="43.45541" lon="6.59771">
        <ele>121.26</ele>
        <time>2012-12-09T13:08:11Z</time>
      </trkpt>
      <trkpt lat="43.45549" lon="6.59773">
        <ele>117.9</ele>
        <time>2012-12-09T13:08:42Z</time>
      </trkpt>
      <trkpt lat="43.45558" lon="6.59783">
        <ele>112.61</ele>
        <time>2012-12-09T13:09:23Z</time>
      </trkpt>
      <trkpt lat="43.45577" lon="6.59787">
        <ele>108.29</ele>
        <time>2012-12-09T13:10:27Z</time>
      </trkpt>
      <trkpt lat="43.45579" lon="6.59795">
        <ele>106.84</ele>
        <time>2012-12-09T13:13:38Z</time>
      </trkpt>
      <trkpt lat="43.45592" lon="6.598">
        <ele>103.96</ele>
        <time>2012-12-09T13:14:21Z</time>
      </trkpt>
      <trkpt lat="43.45608" lon="6.59799">
        <ele>100.11</ele>
        <time>2012-12-09T13:14:52Z</time>
      </trkpt>
      <trkpt lat="43.45612" lon="6.59794">
        <ele>98.67</ele>
        <time>2012-12-09T13:15:29Z</time>
      </trkpt>
      <trkpt lat="43.45628" lon="6.59794">
        <ele>96.75</ele>
        <time>2012-12-09T13:15:58Z</time>
      </trkpt>
      <trkpt lat="43.45645" lon="6.59798">
        <ele>93.39</ele>
        <time>2012-12-09T13:16:29Z</time>
      </trkpt>
      <trkpt lat="43.45649" lon="6.59788">
        <ele>96.27</ele>
        <time>2012-12-09T13:17:20Z</time>
      </trkpt>
      <trkpt lat="43.4566" lon="6.59793">
        <ele>93.39</ele>
        <time>2012-12-09T13:18:22Z</time>
      </trkpt>
      <trkpt lat="43.45675" lon="6.59796">
        <ele>90.02</ele>
        <time>2012-12-09T13:19:56Z</time>
      </trkpt>
      <trkpt lat="43.45692" lon="6.59799">
        <ele>86.66</ele>
        <time>2012-12-09T13:20:36Z</time>
      </trkpt>
      <trkpt lat="43.45707" lon="6.59792">
        <ele>83.29</ele>
        <time>2012-12-09T13:21:09Z</time>
      </trkpt>
      <trkpt lat="43.45727" lon="6.59789">
        <ele>79.45</ele>
        <time>2012-12-09T13:21:37Z</time>
      </trkpt>
      <trkpt lat="43.45737" lon="6.59787">
        <ele>76.08</ele>
        <time>2012-12-09T13:22:07Z</time>
      </trkpt>
      <trkpt lat="43.45747" lon="6.59796">
        <ele>70.79</ele>
        <time>2012-12-09T13:23:09Z</time>
      </trkpt>
      <trkpt lat="43.45764" lon="6.59788">
        <ele>67.91</ele>
        <time>2012-12-09T13:24:10Z</time>
      </trkpt>
      <trkpt lat="43.45782" lon="6.59778">
        <ele>65.03</ele>
        <time>2012-12-09T13:24:31Z</time>
      </trkpt>
      <trkpt lat="43.45797" lon="6.59773">
        <ele>62.14</ele>
        <time>2012-12-09T13:24:55Z</time>
      </trkpt>
      <trkpt lat="43.45813" lon="6.59776">
        <ele>58.78</ele>
        <time>2012-12-09T13:25:47Z</time>
      </trkpt>
      <trkpt lat="43.45828" lon="6.5977">
        <ele>54.93</ele>
        <time>2012-12-09T13:26:25Z</time>
      </trkpt>
      <trkpt lat="43.45841" lon="6.5976">
        <ele>51.09</ele>
        <time>2012-12-09T13:26:54Z</time>
      </trkpt>
      <trkpt lat="43.45855" lon="6.59761">
        <ele>47.24</ele>
        <time>2012-12-09T13:27:35Z</time>
      </trkpt>
      <trkpt lat="43.45866" lon="6.59774">
        <ele>43.4</ele>
        <time>2012-12-09T13:27:59Z</time>
      </trkpt>
      <trkpt lat="43.45876" lon="6.59774">
        <ele>37.63</ele>
        <time>2012-12-09T13:28:43Z</time>
      </trkpt>
      <trkpt lat="43.45892" lon="6.59771">
        <ele>33.78</ele>
        <time>2012-12-09T13:29:01Z</time>
      </trkpt>
      <trkpt lat="43.45893" lon="6.59757">
        <ele>32.82</ele>
        <time>2012-12-09T13:29:41Z</time>
      </trkpt>
      <trkpt lat="43.45898" lon="6.59767">
        <ele>29.46</ele>
        <time>2012-12-09T13:30:16Z</time>
      </trkpt>
      <trkpt lat="43.45906" lon="6.59774">
        <ele>26.09</ele>
        <time>2012-12-09T13:31:32Z</time>
      </trkpt>
      <trkpt lat="43.45922" lon="6.5979">
        <ele>22.73</ele>
        <time>2012-12-09T13:32:28Z</time>
      </trkpt>
      <trkpt lat="43.45937" lon="6.59803">
        <ele>20.81</ele>
        <time>2012-12-09T13:33:05Z</time>
      </trkpt>
      <trkpt lat="43.45936" lon="6.59827">
        <ele>21.29</ele>
        <time>2012-12-09T13:33:37Z</time>
      </trkpt>
      <trkpt lat="43.4593" lon="6.59853">
        <ele>21.29</ele>
        <time>2012-12-09T13:34:00Z</time>
      </trkpt>
      <trkpt lat="43.45923" lon="6.59875">
        <ele>21.77</ele>
        <time>2012-12-09T13:34:41Z</time>
      </trkpt>
      <trkpt lat="43.45918" lon="6.59899">
        <ele>22.25</ele>
        <time>2012-12-09T13:35:02Z</time>
      </trkpt>
      <trkpt lat="43.45911" lon="6.59926">
        <ele>19.84</ele>
        <time>2012-12-09T13:35:26Z</time>
      </trkpt>
      <trkpt lat="43.45906" lon="6.59952">
        <ele>18.88</ele>
        <time>2012-12-09T13:35:57Z</time>
      </trkpt>
      <trkpt lat="43.45901" lon="6.59977">
        <ele>17.44</ele>
        <time>2012-12-09T13:36:18Z</time>
      </trkpt>
      <trkpt lat="43.45894" lon="6.60004">
        <ele>16.96</ele>
        <time>2012-12-09T13:36:43Z</time>
      </trkpt>
      <trkpt lat="43.45893" lon="6.60031">
        <ele>16.96</ele>
        <time>2012-12-09T13:37:02Z</time>
      </trkpt>
      <trkpt lat="43.45887" lon="6.60055">
        <ele>16.48</ele>
        <time>2012-12-09T13:37:21Z</time>
      </trkpt>
      <trkpt lat="43.45879" lon="6.60079">
        <ele>16.48</ele>
        <time>2012-12-09T13:37:41Z</time>
      </trkpt>
      <trkpt lat="43.45876" lon="6.60107">
        <ele>16.96</ele>
        <time>2012-12-09T13:38:00Z</time>
      </trkpt>
      <trkpt lat="43.45872" lon="6.60136">
        <ele>17.92</ele>
        <time>2012-12-09T13:38:22Z</time>
      </trkpt>
      <trkpt lat="43.4587" lon="6.60162">
        <ele>18.88</ele>
        <time>2012-12-09T13:38:40Z</time>
      </trkpt>
      <trkpt lat="43.45869" lon="6.60189">
        <ele>19.36</ele>
        <time>2012-12-09T13:38:58Z</time>
      </trkpt>
      <trkpt lat="43.45864" lon="6.60214">
        <ele>19.84</ele>
        <time>2012-12-09T13:39:15Z</time>
      </trkpt>
      <trkpt lat="43.45863" lon="6.60243">
        <ele>21.29</ele>
        <time>2012-12-09T13:39:37Z</time>
      </trkpt>
      <trkpt lat="43.45861" lon="6.60274">
        <ele>22.25</ele>
        <time>2012-12-09T13:39:58Z</time>
      </trkpt>
      <trkpt lat="43.45858" lon="6.60303">
        <ele>22.25</ele>
        <time>2012-12-09T13:40:18Z</time>
      </trkpt>
      <trkpt lat="43.45859" lon="6.60329">
        <ele>22.25</ele>
        <time>2012-12-09T13:40:52Z</time>
      </trkpt>
      <trkpt lat="43.45859" lon="6.60358">
        <ele>21.77</ele>
        <time>2012-12-09T13:41:14Z</time>
      </trkpt>
      <trkpt lat="43.45858" lon="6.60388">
        <ele>21.29</ele>
        <time>2012-12-09T13:41:36Z</time>
      </trkpt>
      <trkpt lat="43.45859" lon="6.60413">
        <ele>20.81</ele>
        <time>2012-12-09T13:41:54Z</time>
      </trkpt>
      <trkpt lat="43.45858" lon="6.60439">
        <ele>19.84</ele>
        <time>2012-12-09T13:42:13Z</time>
      </trkpt>
      <trkpt lat="43.4586" lon="6.60465">
        <ele>18.88</ele>
        <time>2012-12-09T13:42:33Z</time>
      </trkpt>
      <trkpt lat="43.45861" lon="6.60494">
        <ele>18.4</ele>
        <time>2012-12-09T13:42:52Z</time>
      </trkpt>
      <trkpt lat="43.45862" lon="6.6052">
        <ele>17.92</ele>
        <time>2012-12-09T13:43:10Z</time>
      </trkpt>
      <trkpt lat="43.4586" lon="6.60546">
        <ele>17.44</ele>
        <time>2012-12-09T13:43:28Z</time>
      </trkpt>
      <trkpt lat="43.45864" lon="6.60572">
        <ele>18.4</ele>
        <time>2012-12-09T13:43:45Z</time>
      </trkpt>
      <trkpt lat="43.45866" lon="6.60597">
        <ele>18.88</ele>
        <time>2012-12-09T13:44:02Z</time>
      </trkpt>
      <trkpt lat="43.45871" lon="6.6062">
        <ele>18.88</ele>
        <time>2012-12-09T13:44:19Z</time>
      </trkpt>
      <trkpt lat="43.45874" lon="6.60645">
        <ele>19.36</ele>
        <time>2012-12-09T13:44:39Z</time>
      </trkpt>
      <trkpt lat="43.45878" lon="6.60671">
        <ele>19.84</ele>
        <time>2012-12-09T13:46:12Z</time>
      </trkpt>
      <trkpt lat="43.45884" lon="6.60693">
        <ele>19.84</ele>
        <time>2012-12-09T13:46:32Z</time>
      </trkpt>
      <trkpt lat="43.4589" lon="6.60719">
        <ele>19.36</ele>
        <time>2012-12-09T13:46:50Z</time>
      </trkpt>
      <trkpt lat="43.45895" lon="6.60743">
        <ele>18.88</ele>
        <time>2012-12-09T13:47:07Z</time>
      </trkpt>
      <trkpt lat="43.45902" lon="6.6077">
        <ele>18.4</ele>
        <time>2012-12-09T13:47:25Z</time>
      </trkpt>
      <trkpt lat="43.4591" lon="6.60795">
        <ele>17.92</ele>
        <time>2012-12-09T13:47:43Z</time>
      </trkpt>
      <trkpt lat="43.45919" lon="6.60821">
        <ele>17.92</ele>
        <time>2012-12-09T13:48:00Z</time>
      </trkpt>
      <trkpt lat="43.45922" lon="6.60844">
        <ele>17.92</ele>
        <time>2012-12-09T13:48:16Z</time>
      </trkpt>
      <trkpt lat="43.45929" lon="6.60868">
        <ele>18.4</ele>
        <time>2012-12-09T13:48:32Z</time>
      </trkpt>
      <trkpt lat="43.45936" lon="6.60892">
        <ele>19.36</ele>
        <time>2012-12-09T13:48:50Z</time>
      </trkpt>
      <trkpt lat="43.45939" lon="6.60918">
        <ele>22.25</ele>
        <time>2012-12-09T13:49:09Z</time>
      </trkpt>
      <trkpt lat="43.45945" lon="6.60943">
        <ele>21.29</ele>
        <time>2012-12-09T13:49:28Z</time>
      </trkpt>
      <trkpt lat="43.45948" lon="6.60968">
        <ele>22.73</ele>
        <time>2012-12-09T13:49:54Z</time>
      </trkpt>
      <trkpt lat="43.45929" lon="6.60983">
        <ele>21.77</ele>
        <time>2012-12-09T13:50:12Z</time>
      </trkpt>
      <trkpt lat="43.45912" lon="6.60992">
        <ele>20.32</ele>
        <time>2012-12-09T13:50:29Z</time>
      </trkpt>
      <trkpt lat="43.45894" lon="6.61003">
        <ele>19.36</ele>
        <time>2012-12-09T13:50:45Z</time>
      </trkpt>
      <trkpt lat="43.45878" lon="6.6101">
        <ele>17.92</ele>
        <time>2012-12-09T13:51:02Z</time>
      </trkpt>
      <trkpt lat="43.45858" lon="6.61015">
        <ele>16.48</ele>
        <time>2012-12-09T13:51:19Z</time>
      </trkpt>
      <trkpt lat="43.4584" lon="6.61009">
        <ele>15.04</ele>
        <time>2012-12-09T13:51:37Z</time>
      </trkpt>
      <trkpt lat="43.45822" lon="6.61002">
        <ele>13.6</ele>
        <time>2012-12-09T13:51:53Z</time>
      </trkpt>
      <trkpt lat="43.45801" lon="6.61003">
        <ele>13.12</ele>
        <time>2012-12-09T13:52:10Z</time>
      </trkpt>
      <trkpt lat="43.45784" lon="6.61015">
        <ele>12.63</ele>
        <time>2012-12-09T13:52:28Z</time>
      </trkpt>
      <trkpt lat="43.4577" lon="6.61031">
        <ele>12.63</ele>
        <time>2012-12-09T13:52:43Z</time>
      </trkpt>
      <trkpt lat="43.45757" lon="6.61046">
        <ele>12.15</ele>
        <time>2012-12-09T13:53:00Z</time>
      </trkpt>
      <trkpt lat="43.45743" lon="6.61062">
        <ele>12.63</ele>
        <time>2012-12-09T13:53:15Z</time>
      </trkpt>
      <trkpt lat="43.45726" lon="6.61072">
        <ele>12.15</ele>
        <time>2012-12-09T13:53:32Z</time>
      </trkpt>
      <trkpt lat="43.45708" lon="6.61075">
        <ele>12.15</ele>
        <time>2012-12-09T13:53:48Z</time>
      </trkpt>
      <trkpt lat="43.45688" lon="6.61072">
        <ele>12.15</ele>
        <time>2012-12-09T13:54:07Z</time>
      </trkpt>
      <trkpt lat="43.45667" lon="6.61074">
        <ele>11.67</ele>
        <time>2012-12-09T13:54:27Z</time>
      </trkpt>
      <trkpt lat="43.45644" lon="6.61089">
        <ele>11.67</ele>
        <time>2012-12-09T13:54:50Z</time>
      </trkpt>
      <trkpt lat="43.45627" lon="6.61108">
        <ele>11.67</ele>
        <time>2012-12-09T13:55:06Z</time>
      </trkpt>
      <trkpt lat="43.45611" lon="6.61126">
        <ele>11.67</ele>
        <time>2012-12-09T13:55:27Z</time>
      </trkpt>
      <trkpt lat="43.456" lon="6.61152">
        <ele>11.67</ele>
        <time>2012-12-09T13:55:46Z</time>
      </trkpt>
      <trkpt lat="43.45587" lon="6.61174">
        <ele>11.67</ele>
        <time>2012-12-09T13:56:05Z</time>
      </trkpt>
      <trkpt lat="43.4557" lon="6.61192">
        <ele>11.19</ele>
        <time>2012-12-09T13:56:24Z</time>
      </trkpt>
      <trkpt lat="43.45545" lon="6.61194">
        <ele>10.71</ele>
        <time>2012-12-09T13:56:49Z</time>
      </trkpt>
      <trkpt lat="43.4552" lon="6.61199">
        <ele>10.71</ele>
        <time>2012-12-09T13:57:10Z</time>
      </trkpt>
      <trkpt lat="43.45499" lon="6.61207">
        <ele>11.19</ele>
        <time>2012-12-09T13:58:22Z</time>
      </trkpt>
      <trkpt lat="43.45485" lon="6.61204">
        <ele>11.19</ele>
        <time>2012-12-09T13:59:55Z</time>
      </trkpt>
      <trkpt lat="43.45467" lon="6.61197">
        <ele>10.71</ele>
        <time>2012-12-09T14:00:14Z</time>
      </trkpt>
      <trkpt lat="43.45458" lon="6.61209">
        <ele>10.23</ele>
        <time>2012-12-09T14:00:40Z</time>
      </trkpt>
      <trkpt lat="43.45446" lon="6.61228">
        <ele>10.23</ele>
        <time>2012-12-09T14:00:57Z</time>
      </trkpt>
      <trkpt lat="43.4543" lon="6.61242">
        <ele>10.23</ele>
        <time>2012-12-09T14:01:15Z</time>
      </trkpt>
      <trkpt lat="43.45415" lon="6.61258">
        <ele>10.23</ele>
        <time>2012-12-09T14:01:33Z</time>
      </trkpt>
      <trkpt lat="43.45406" lon="6.61278">
        <ele>10.23</ele>
        <time>2012-12-09T14:01:51Z</time>
      </trkpt>
      <trkpt lat="43.4539" lon="6.61294">
        <ele>10.71</ele>
        <time>2012-12-09T14:02:13Z</time>
      </trkpt>
      <trkpt lat="43.4537" lon="6.61296">
        <ele>10.71</ele>
        <time>2012-12-09T14:02:32Z</time>
      </trkpt>
      <trkpt lat="43.45351" lon="6.61295">
        <ele>11.19</ele>
        <time>2012-12-09T14:02:49Z</time>
      </trkpt>
      <trkpt lat="43.45333" lon="6.6129">
        <ele>11.19</ele>
        <time>2012-12-09T14:03:06Z</time>
      </trkpt>
      <trkpt lat="43.45318" lon="6.61301">
        <ele>11.19</ele>
        <time>2012-12-09T14:03:24Z</time>
      </trkpt>
      <trkpt lat="43.45305" lon="6.61315">
        <ele>11.19</ele>
        <time>2012-12-09T14:03:41Z</time>
      </trkpt>
      <trkpt lat="43.45294" lon="6.61336">
        <ele>12.15</ele>
        <time>2012-12-09T14:04:06Z</time>
      </trkpt>
      <trkpt lat="43.45285" lon="6.61364">
        <ele>11.67</ele>
        <time>2012-12-09T14:04:27Z</time>
      </trkpt>
      <trkpt lat="43.45268" lon="6.61382">
        <ele>12.15</ele>
        <time>2012-12-09T14:04:44Z</time>
      </trkpt>
      <trkpt lat="43.45252" lon="6.61389">
        <ele>12.15</ele>
        <time>2012-12-09T14:05:02Z</time>
      </trkpt>
      <trkpt lat="43.45244" lon="6.61409">
        <ele>11.67</ele>
        <time>2012-12-09T14:05:20Z</time>
      </trkpt>
      <trkpt lat="43.45245" lon="6.61434">
        <ele>11.67</ele>
        <time>2012-12-09T14:05:39Z</time>
      </trkpt>
      <trkpt lat="43.45235" lon="6.61458">
        <ele>11.67</ele>
        <time>2012-12-09T14:05:57Z</time>
      </trkpt>
      <trkpt lat="43.4522" lon="6.61469">
        <ele>10.71</ele>
        <time>2012-12-09T14:07:00Z</time>
      </trkpt>
      <trkpt lat="43.4522" lon="6.61469">
        <ele>10.23</ele>
        <time>2012-12-09T14:09:28Z</time>
      </trkpt>
      <trkpt lat="43.45208" lon="6.61482">
        <ele>9.75</ele>
        <time>2012-12-09T14:10:25Z</time>
      </trkpt>
      <trkpt lat="43.45192" lon="6.61495">
        <ele>9.75</ele>
        <time>2012-12-09T14:10:48Z</time>
      </trkpt>
      <trkpt lat="43.45168" lon="6.615">
        <ele>9.75</ele>
        <time>2012-12-09T14:11:11Z</time>
      </trkpt>
      <trkpt lat="43.4515" lon="6.61507">
        <ele>10.23</ele>
        <time>2012-12-09T14:11:33Z</time>
      </trkpt>
      <trkpt lat="43.45131" lon="6.61511">
        <ele>10.23</ele>
        <time>2012-12-09T14:11:52Z</time>
      </trkpt>
      <trkpt lat="43.45112" lon="6.6153">
        <ele>10.71</ele>
        <time>2012-12-09T14:12:11Z</time>
      </trkpt>
      <trkpt lat="43.45092" lon="6.61544">
        <ele>10.23</ele>
        <time>2012-12-09T14:12:34Z</time>
      </trkpt>
      <trkpt lat="43.45081" lon="6.61521">
        <ele>9.75</ele>
        <time>2012-12-09T14:12:54Z</time>
      </trkpt>
      <trkpt lat="43.45061" lon="6.61524">
        <ele>9.27</ele>
        <time>2012-12-09T14:13:10Z</time>
      </trkpt>
      <trkpt lat="43.45052" lon="6.61541">
        <ele>8.79</ele>
        <time>2012-12-09T14:13:25Z</time>
      </trkpt>
      <trkpt lat="43.45048" lon="6.61565">
        <ele>9.27</ele>
        <time>2012-12-09T14:13:41Z</time>
      </trkpt>
      <trkpt lat="43.45043" lon="6.6159">
        <ele>9.75</ele>
        <time>2012-12-09T14:13:57Z</time>
      </trkpt>
      <trkpt lat="43.4505" lon="6.61613">
        <ele>10.23</ele>
        <time>2012-12-09T14:14:14Z</time>
      </trkpt>
    </trkseg>
  </trk>
</gpx>